Time;durP1;ratioP1;P1;durP2;ratioP2;P2;SDS_P1;SDS_P2;PMS_P1;PMS_P2;Temp;Humidity;BMP_temperature;BMP_pressure;BME280_temperature;BME280_humidity;BME280_pressure;Samples;Min_cycle;Max_cycle;Signal;HPM_P1;HPM_P2
2024/04/03 00:00:55;;;;;;;1.63;0.50;;;;;;;16.60;41.34;100190.66;5031661;28;20129;-73
2024/04/03 00:03:20;;;;;;;2.53;0.55;;;;;;;16.46;41.39;100195.75;5031907;28;20045;-73
2024/04/03 00:05:46;;;;;;;1.48;0.45;;;;;;;16.56;41.53;100196.72;5018804;28;20040;-73
2024/04/03 00:08:11;;;;;;;2.45;0.50;;;;;;;16.50;41.95;100205.34;5032506;28;20094;-73
2024/04/03 00:10:37;;;;;;;3.47;0.50;;;;;;;16.36;41.50;100187.84;5032245;28;20029;-73
2024/04/03 00:13:03;;;;;;;1.38;0.50;;;;;;;16.43;44.62;100198.34;5032072;28;20036;-73
2024/04/03 00:15:29;;;;;;;1.30;0.40;;;;;;;16.52;42.32;100214.91;5031921;28;20026;-73
2024/04/03 00:17:54;;;;;;;0.63;0.40;;;;;;;16.42;42.77;100212.22;5032311;28;20025;-73
2024/04/03 00:20:23;;;;;;;0.45;0.43;;;;;;;16.34;41.53;100212.16;5032447;28;20026;-73
2024/04/03 00:22:49;;;;;;;0.47;0.40;;;;;;;16.29;42.42;100219.06;5032285;28;20044;-73
2024/04/03 00:25:15;;;;;;;1.85;0.70;;;;;;;16.23;42.73;100234.63;5040172;28;20124;-73
2024/04/03 00:27:40;;;;;;;1.75;0.40;;;;;;;16.06;42.76;100230.97;5031892;28;20069;-73
2024/04/03 00:30:08;;;;;;;0.85;0.30;;;;;;;16.00;43.65;100222.25;5031831;28;20104;-73
2024/04/03 00:32:36;;;;;;;0.65;0.50;;;;;;;15.74;44.06;100195.00;5031370;28;20104;-73
2024/04/03 00:35:02;;;;;;;5.55;0.60;;;;;;;15.58;44.01;100227.81;5031180;28;20125;-73
2024/04/03 00:37:35;;;;;;;1.55;0.60;;;;;;;15.72;43.66;100240.97;5031824;28;20025;-72
2024/04/03 00:40:01;;;;;;;0.73;0.60;;;;;;;15.62;44.40;100225.22;5023068;28;20183;-72
2024/04/03 00:42:27;;;;;;;0.68;0.65;;;;;;;15.47;44.61;100201.63;5031864;28;20542;-73
2024/04/03 00:44:52;;;;;;;1.13;0.63;;;;;;;15.55;45.07;100248.56;5031642;28;20040;-73
2024/04/03 00:47:18;;;;;;;4.57;1.00;;;;;;;15.43;45.73;100228.47;5032218;28;20041;-73
2024/04/03 00:49:45;;;;;;;1.80;0.70;;;;;;;15.53;46.66;100253.75;5031333;28;20496;-73
2024/04/03 00:52:14;;;;;;;2.35;0.90;;;;;;;15.41;47.33;100253.59;5031565;28;20483;-73
2024/04/03 00:54:45;;;;;;;3.70;1.25;;;;;;;15.14;47.56;100208.13;5031273;28;20540;-73
2024/04/03 00:57:12;;;;;;;3.28;1.08;;;;;;;15.29;47.80;100252.56;5031373;28;20037;-73
2024/04/03 00:59:38;;;;;;;1.50;0.88;;;;;;;15.31;48.20;100260.38;5031151;28;20107;-73
2024/04/03 01:02:04;;;;;;;2.70;1.00;;;;;;;15.12;48.24;100226.31;5031022;28;20068;-73
2024/04/03 01:04:29;;;;;;;2.15;1.00;;;;;;;15.32;48.34;100251.72;5031153;28;20064;-73
2024/04/03 01:06:55;;;;;;;2.20;1.08;;;;;;;15.49;48.04;100267.59;5031205;28;20025;-73
2024/04/03 01:09:20;;;;;;;3.13;1.00;;;;;;;15.62;48.42;100263.41;5030855;28;20033;-73
2024/04/03 01:11:46;;;;;;;3.60;1.10;;;;;;;15.80;48.43;100273.16;5031555;28;20025;-73
2024/04/03 01:14:12;;;;;;;4.90;1.13;;;;;;;15.82;47.50;100258.47;5038861;28;20080;-73
2024/04/03 01:16:40;;;;;;;0.90;0.80;;;;;;;15.85;49.31;100268.94;5030720;28;20124;-73
2024/04/03 01:19:06;;;;;;;3.50;0.90;;;;;;;15.84;50.45;100298.44;5030675;28;20071;-73
2024/04/03 01:21:31;;;;;;;2.42;0.90;;;;;;;15.93;50.54;100295.06;5031246;28;20025;-73
2024/04/03 01:23:57;;;;;;;2.63;1.00;;;;;;;15.78;51.30;100298.31;5031212;28;20021;-73
2024/04/03 01:26:22;;;;;;;1.70;0.95;;;;;;;15.62;51.92;100303.31;5030331;28;20577;-73
2024/04/03 01:28:48;;;;;;;2.05;1.00;;;;;;;15.66;50.87;100302.50;5030825;28;20041;-73
2024/04/03 01:31:13;;;;;;;2.00;1.00;;;;;;;15.67;50.30;100301.63;5021367;28;20471;-73
2024/04/03 01:33:39;;;;;;;2.47;1.00;;;;;;;15.67;50.34;100304.22;5030505;28;20033;-73
2024/04/03 01:36:08;;;;;;;3.13;1.48;;;;;;;15.59;50.81;100298.06;5031091;28;20672;-73
2024/04/03 01:38:33;;;;;;;4.93;1.23;;;;;;;15.55;50.65;100303.19;5030895;28;20030;-74
2024/04/03 01:40:59;;;;;;;3.08;1.15;;;;;;;15.18;51.79;100255.00;5030554;28;20036;-73
2024/04/03 01:43:24;;;;;;;2.55;1.20;;;;;;;15.59;51.49;100304.97;5030329;28;20384;-73
2024/04/03 01:46:00;;;;;;;3.75;1.23;;;;;;;15.54;50.65;100307.53;5030308;28;20033;-73
2024/04/03 01:48:25;;;;;;;2.17;1.20;;;;;;;15.17;51.47;100287.06;5032943;28;20039;-73
2024/04/03 01:50:51;;;;;;;1.67;0.85;;;;;;;15.19;52.28;100300.09;5030344;28;20034;-73
2024/04/03 01:53:17;;;;;;;2.25;1.00;;;;;;;15.27;52.16;100308.00;5030397;28;20029;-73
2024/04/03 01:55:57;;;;;;;2.15;0.93;;;;;;;14.95;53.25;100314.44;5030386;28;20036;-73
2024/04/03 01:58:23;;;;;;;3.03;0.90;;;;;;;14.93;54.62;100317.84;5029971;28;20056;-73
2024/04/03 02:00:50;;;;;;;3.78;1.00;;;;;;;15.01;53.84;100305.88;5028066;28;20056;-73
2024/04/03 02:03:16;;;;;;;2.72;0.98;;;;;;;14.97;53.47;100304.94;5030253;28;20500;-73
2024/04/03 02:05:45;;;;;;;3.45;0.90;;;;;;;14.78;54.01;100315.88;5029908;28;20029;-73
2024/04/03 02:08:12;;;;;;;5.03;1.10;;;;;;;14.52;55.79;100326.66;5029997;28;20037;-73
2024/04/03 02:10:37;;;;;;;2.53;1.02;;;;;;;14.44;56.38;100284.06;5029888;28;20030;-73
2024/04/03 02:13:03;;;;;;;4.30;1.10;;;;;;;14.72;56.72;100324.47;5029486;28;20519;-73
2024/04/03 02:15:28;;;;;;;5.38;1.08;;;;;;;14.68;56.26;100320.06;5030237;28;20028;-73
2024/04/03 02:17:54;;;;;;;3.72;1.52;;;;;;;14.83;57.06;100329.84;5019614;28;20040;-73
2024/04/03 02:20:19;;;;;;;3.22;1.10;;;;;;;14.89;55.96;100319.53;5030558;28;20039;-73
2024/04/03 02:22:48;;;;;;;3.75;1.45;;;;;;;14.91;56.36;100332.56;5022557;28;20112;-73
2024/04/03 02:25:14;;;;;;;3.13;1.17;;;;;;;14.90;56.61;100321.28;5029884;28;20038;-73
2024/04/03 02:27:39;;;;;;;1.90;0.93;;;;;;;14.93;57.71;100331.75;5028913;28;20621;-73
2024/04/03 02:30:05;;;;;;;1.83;0.90;;;;;;;14.84;58.49;100341.97;5029643;28;20419;-73
2024/04/03 02:32:31;;;;;;;6.32;1.42;;;;;;;14.03;59.76;100304.09;5029583;28;20029;-73
2024/04/03 02:34:56;;;;;;;3.53;1.23;;;;;;;14.07;59.12;100343.97;5018819;28;20029;-73
2024/04/03 02:37:22;;;;;;;2.53;0.93;;;;;;;13.78;59.70;100318.25;5030354;28;20488;-73
2024/04/03 02:39:47;;;;;;;4.60;1.38;;;;;;;14.15;60.25;100355.38;5029341;28;20036;-73
2024/04/03 02:42:13;;;;;;;5.95;1.20;;;;;;;13.97;59.73;100303.97;5029426;28;20036;-73
2024/04/03 02:44:38;;;;;;;5.65;1.38;;;;;;;13.83;61.30;100308.00;5029487;28;20095;-73
2024/04/03 02:47:04;;;;;;;3.33;1.30;;;;;;;14.18;62.19;100359.75;5029985;28;20113;-73
2024/04/03 02:49:30;;;;;;;4.30;1.00;;;;;;;14.21;61.74;100358.09;5029606;28;20407;-73
2024/04/03 02:51:55;;;;;;;4.70;1.00;;;;;;;14.24;61.17;100365.97;5029522;28;20037;-73
2024/04/03 02:54:21;;;;;;;4.93;1.42;;;;;;;14.27;59.47;100359.06;5029688;28;20025;-73
2024/04/03 02:56:46;;;;;;;2.45;1.17;;;;;;;14.20;59.22;100358.94;5028712;28;20029;-73
2024/04/03 02:59:12;;;;;;;8.55;1.73;;;;;;;14.33;59.19;100361.78;5029520;28;20400;-72
2024/04/03 03:01:37;;;;;;;3.33;1.00;;;;;;;14.23;59.19;100373.69;5030348;28;20144;-73
2024/04/03 03:04:03;;;;;;;5.93;1.13;;;;;;;14.12;59.71;100381.28;5029373;28;20030;-73
2024/04/03 03:06:28;;;;;;;5.07;1.27;;;;;;;13.95;60.80;100388.69;5029192;28;20026;-73
2024/04/03 03:08:54;;;;;;;3.38;0.98;;;;;;;13.89;60.64;100375.59;5029163;28;20069;-73
2024/04/03 03:11:19;;;;;;;5.55;1.27;;;;;;;13.62;60.43;100332.63;5029426;28;20124;-73
2024/04/03 03:13:45;;;;;;;0.95;0.90;;;;;;;13.87;60.07;100383.34;5029239;28;20124;-73
2024/04/03 03:16:10;;;;;;;3.33;1.00;;;;;;;13.81;60.42;100371.97;5030084;28;20033;-73
2024/04/03 03:18:35;;;;;;;3.35;1.20;;;;;;;13.79;60.15;100389.22;5029118;28;20453;-73
2024/04/03 03:21:01;;;;;;;1.88;1.00;;;;;;;13.69;60.68;100385.53;5029350;28;20035;-73
2024/04/03 03:23:27;;;;;;;4.05;1.20;;;;;;;13.81;61.03;100400.50;5029167;28;20095;-73
2024/04/03 03:25:53;;;;;;;4.38;1.27;;;;;;;13.69;61.26;100398.50;5028842;28;20030;-73
2024/04/03 03:28:19;;;;;;;3.90;1.40;;;;;;;13.54;62.45;100396.44;5028865;28;20048;-73
2024/04/03 03:30:47;;;;;;;3.03;1.15;;;;;;;13.17;63.33;100405.84;5029823;28;20104;-73
2024/04/03 03:33:13;;;;;;;5.00;1.67;;;;;;;13.27;63.51;100413.91;5029310;28;20068;-73
2024/04/03 03:35:39;;;;;;;3.80;0.98;;;;;;;13.24;63.17;100412.97;5029200;28;20060;-73
2024/04/03 03:38:04;;;;;;;2.13;1.20;;;;;;;13.27;62.83;100413.91;5019759;28;20138;-73
2024/04/03 03:40:32;;;;;;;4.20;1.40;;;;;;;13.39;62.10;100428.91;5032500;28;20045;-73
2024/04/03 03:42:57;;;;;;;2.60;1.33;;;;;;;13.43;62.21;100438.53;5032992;28;20036;-73
2024/04/03 03:45:23;;;;;;;3.13;1.10;;;;;;;13.20;61.65;100390.41;5032441;28;20037;-73
2024/04/03 03:47:49;;;;;;;3.05;1.10;;;;;;;13.28;62.52;100438.13;5032724;28;20120;-73
2024/04/03 03:52:59;;;;;;;7.32;2.08;;;;;;;13.24;62.94;100436.28;5032279;28;20044;-73
2024/04/03 03:55:29;;;;;;;10.52;1.60;;;;;;;13.28;63.12;100443.28;5032857;28;20037;-73
2024/04/03 03:57:55;;;;;;;5.43;1.40;;;;;;;13.31;63.27;100456.34;5032776;28;20041;-73
2024/04/03 04:00:20;;;;;;;2.83;1.15;;;;;;;13.13;64.78;100453.28;5032473;28;20046;-73
2024/04/03 04:02:46;;;;;;;6.38;1.50;;;;;;;12.98;65.02;100470.16;5007407;28;20057;-73
2024/04/03 04:05:11;;;;;;;5.30;1.77;;;;;;;13.10;65.01;100470.50;5031976;28;20113;-72
2024/04/03 04:07:36;;;;;;;8.38;1.70;;;;;;;13.06;65.55;100471.25;5031938;28;20037;-73
2024/04/03 04:10:03;;;;;;;4.32;1.73;;;;;;;12.95;65.70;100462.31;5032188;28;20025;-73
2024/04/03 04:12:29;;;;;;;6.95;1.80;;;;;;;12.82;66.69;100455.91;5004536;28;20415;-73
2024/04/03 04:14:54;;;;;;;7.97;2.08;;;;;;;12.49;66.98;100427.38;5032638;28;20022;-72
2024/04/03 04:17:23;;;;;;;7.00;2.17;;;;;;;12.82;67.24;100486.13;5032320;28;20478;-73
2024/04/03 04:20:07;;;;;;;6.00;1.70;;;;;;;12.77;66.07;100466.16;4998887;28;20576;-72
2024/04/03 04:22:34;;;;;;;6.70;1.95;;;;;;;12.60;66.08;100436.31;4973448;28;20509;-73
2024/04/03 04:25:04;;;;;;;7.82;1.45;;;;;;;12.90;65.14;100472.56;4999572;28;20617;-72
2024/04/03 04:27:31;;;;;;;6.78;1.70;;;;;;;13.07;64.82;100483.41;4999813;28;20556;-73
2024/04/03 04:30:05;;;;;;;7.80;1.75;;;;;;;13.03;64.56;100481.53;4995426;28;20037;-73
2024/04/03 04:32:30;;;;;;;3.85;1.77;;;;;;;13.17;63.80;100499.19;4984852;28;20026;-73
2024/04/03 04:34:56;;;;;;;5.55;1.42;;;;;;;13.21;62.71;100501.91;4997429;28;20433;-72
2024/04/03 04:37:22;;;;;;;5.78;1.08;;;;;;;13.04;62.69;100483.28;5001261;28;20089;-73
2024/04/03 04:39:47;;;;;;;4.03;1.65;;;;;;;13.18;64.08;100512.16;4996398;28;20048;-73
2024/04/03 04:42:14;;;;;;;6.40;1.67;;;;;;;13.06;64.06;100507.56;4999548;28;20503;-73
2024/04/03 04:44:39;;;;;;;3.17;2.10;;;;;;;13.00;63.71;100496.16;4997808;28;20076;-73
2024/04/03 04:47:05;;;;;;;4.70;1.40;;;;;;;13.22;62.83;100518.31;4998227;28;20066;-72
2024/04/03 04:49:31;;;;;;;2.80;1.40;;;;;;;13.23;62.78;100517.50;4992919;28;20089;-71
2024/04/03 04:51:56;;;;;;;3.38;1.20;;;;;;;13.12;63.57;100522.38;5024742;28;20088;-71
2024/04/03 04:54:23;;;;;;;4.03;1.30;;;;;;;12.69;67.14;100487.50;5032018;28;20111;-71
2024/04/03 04:56:48;;;;;;;2.70;1.30;;;;;;;12.65;70.30;100530.56;5027836;28;20121;-71
2024/04/03 04:59:14;;;;;;;4.45;1.38;;;;;;;12.58;71.46;100544.16;5031981;28;20104;-71
2024/04/03 05:01:41;;;;;;;5.97;1.40;;;;;;;12.51;72.40;100539.63;5029595;28;20042;-71
2024/04/03 05:04:09;;;;;;;1.95;0.82;;;;;;;12.46;69.27;100530.03;5031722;28;20029;-71
2024/04/03 05:06:35;;;;;;;4.07;1.20;;;;;;;12.65;67.82;100528.00;5018231;28;20103;-71
2024/04/03 05:09:03;;;;;;;2.80;1.08;;;;;;;12.77;66.58;100530.94;5030808;28;20041;-71
2024/04/03 05:11:30;;;;;;;6.25;1.48;;;;;;;12.79;65.40;100521.47;5031334;28;20029;-71
2024/04/03 05:13:55;;;;;;;2.38;1.02;;;;;;;12.90;65.74;100536.47;5026777;28;20048;-71
2024/04/03 05:16:21;;;;;;;1.90;0.90;;;;;;;13.06;64.09;100537.75;5032050;28;20021;-71
2024/04/03 05:18:51;;;;;;;3.70;1.25;;;;;;;13.17;63.07;100545.84;5031261;28;20419;-71
2024/04/03 05:21:17;;;;;;;;;;;;;;;13.25;62.76;100546.94;5031271;28;20037;-71
2024/04/03 05:23:43;;;;;;;5.80;1.42;;;;;;;13.31;62.71;100546.22;5031003;28;19956;-71
2024/04/03 05:26:14;;;;;;;2.45;0.95;;;;;;;13.36;62.39;100547.25;5030779;28;20028;-71
2024/04/03 05:28:40;;;;;;;3.50;1.20;;;;;;;13.31;63.10;100548.81;5020499;28;20041;-71
2024/04/03 05:31:07;;;;;;;4.05;1.20;;;;;;;13.32;63.67;100535.91;5030712;28;20452;-71
2024/04/03 05:33:33;;;;;;;8.20;1.02;;;;;;;13.41;63.93;100541.34;5029257;28;20033;-71
2024/04/03 05:36:01;;;;;;;4.30;1.83;;;;;;;13.55;63.77;100548.63;5031314;28;20034;-71
2024/04/03 05:38:28;;;;;;;16.73;1.48;;;;;;;13.32;63.47;100538.50;5029035;28;20029;-71
2024/04/03 05:40:53;;;;;;;2.65;1.35;;;;;;;13.24;64.21;100522.72;5030593;28;20036;-71
2024/04/03 05:43:20;;;;;;;7.15;1.27;;;;;;;13.49;63.32;100566.63;5029251;28;20026;-71
2024/04/03 05:45:47;;;;;;;2.95;1.10;;;;;;;13.29;63.00;100553.09;5030536;28;20116;-70
2024/04/03 05:48:14;;;;;;;29.58;2.20;;;;;;;13.22;62.59;100570.16;5030734;28;20048;-71
2024/04/03 05:50:40;;;;;;;2.67;1.20;;;;;;;13.22;63.90;100562.38;5029995;28;20435;-71
2024/04/03 05:53:05;;;;;;;3.15;0.95;;;;;;;13.59;65.64;100563.41;5022291;28;20026;-71
2024/04/03 05:55:31;;;;;;;2.22;0.90;;;;;;;13.91;64.90;100566.84;5030447;28;20065;-71
2024/04/03 05:57:56;;;;;;;1.10;0.80;;;;;;;14.13;64.24;100577.75;5029799;28;20088;-72
2024/04/03 06:00:22;;;;;;;3.88;1.35;;;;;;;14.36;62.02;100580.00;5030056;28;20859;-71
2024/04/03 06:02:48;;;;;;;3.72;1.13;;;;;;;14.44;61.09;100560.25;5030113;28;20049;-71
2024/04/03 06:05:14;;;;;;;2.38;1.13;;;;;;;14.71;60.58;100577.34;5030097;28;20112;-71
2024/04/03 06:07:40;;;;;;;2.10;0.95;;;;;;;14.91;60.30;100585.56;5029828;28;20442;-71
2024/04/03 06:10:06;;;;;;;1.83;1.10;;;;;;;15.04;58.73;100589.28;5030076;28;20021;-71
2024/04/03 06:12:31;;;;;;;1.20;0.88;;;;;;;15.11;58.72;100590.31;5030024;28;20036;-71
2024/04/03 06:14:57;;;;;;;2.17;0.90;;;;;;;15.13;59.30;100573.91;5029877;28;20048;-71
2024/04/03 06:17:23;;;;;;;1.42;0.90;;;;;;;15.07;59.22;100578.13;5029758;28;20033;-71
2024/04/03 06:19:48;;;;;;;1.92;0.85;;;;;;;15.35;57.61;100580.41;5030656;28;20036;-71
2024/04/03 06:22:14;;;;;;;1.15;0.80;;;;;;;15.43;54.88;100583.16;5029658;28;20037;-70
2024/04/03 06:24:40;;;;;;;6.80;1.13;;;;;;;15.20;55.05;100573.19;5029675;28;20037;-71
2024/04/03 06:27:06;;;;;;;3.90;1.77;;;;;;;15.30;55.36;100587.25;5029691;28;20025;-71
2024/04/03 06:29:31;;;;;;;1.50;0.93;;;;;;;15.43;54.96;100579.69;5029766;28;20112;-71
2024/04/03 06:31:58;;;;;;;1.33;1.00;;;;;;;15.57;54.92;100598.16;5029395;28;20115;-71
2024/04/03 06:34:24;;;;;;;1.83;0.80;;;;;;;15.64;54.25;100590.47;5023998;28;20025;-71
2024/04/03 06:36:49;;;;;;;3.08;0.77;;;;;;;16.00;53.38;100597.19;5029533;28;20466;-71
2024/04/03 06:39:15;;;;;;;3.30;0.95;;;;;;;16.22;53.59;100599.28;5029438;28;20060;-71
2024/04/03 06:41:41;;;;;;;3.05;0.90;;;;;;;16.39;52.72;100583.91;5030350;28;20033;-71
2024/04/03 06:44:07;;;;;;;1.00;0.90;;;;;;;16.56;53.71;100574.63;5029590;28;20041;-71
2024/04/03 06:46:32;;;;;;;2.03;1.02;;;;;;;16.67;53.02;100564.31;5029244;28;20026;-71
2024/04/03 06:48:58;;;;;;;4.22;0.90;;;;;;;16.82;53.14;100590.59;5029655;28;20029;-71
2024/04/03 06:51:23;;;;;;;1.65;0.70;;;;;;;16.80;52.46;100567.97;5029093;28;20025;-71
2024/04/03 06:53:49;;;;;;;1.58;0.68;;;;;;;17.19;49.99;100589.34;5029866;28;20025;-71
2024/04/03 06:56:15;;;;;;;2.08;0.90;;;;;;;17.37;47.92;100596.50;5020107;28;20042;-71
2024/04/03 06:58:41;;;;;;;2.70;0.55;;;;;;;17.41;47.47;100591.34;5023115;28;20075;-71
2024/04/03 07:01:08;;;;;;;2.90;0.88;;;;;;;17.42;48.12;100581.75;5046025;28;20092;-71
2024/04/03 07:03:33;;;;;;;2.30;0.85;;;;;;;17.49;51.09;100583.56;5017421;28;20033;-71
2024/04/03 07:06:00;;;;;;;1.15;0.70;;;;;;;17.62;43.72;100595.03;5029279;28;20048;-71
2024/04/03 07:08:26;;;;;;;1.15;0.57;;;;;;;17.50;42.79;100569.66;5029482;28;20036;-71
2024/04/03 07:10:51;;;;;;;3.17;0.90;;;;;;;17.85;40.55;100587.41;5028628;28;20061;-71
2024/04/03 07:13:17;;;;;;;1.40;0.50;;;;;;;18.11;39.41;100586.78;5027522;28;20056;-71
2024/04/03 07:15:49;;;;;;;0.82;0.70;;;;;;;18.20;39.26;100588.59;5033486;28;20037;-71
2024/04/03 07:18:16;;;;;;;1.92;0.70;;;;;;;18.35;38.82;100588.69;5025485;28;20026;-71
2024/04/03 07:20:41;;;;;;;2.67;0.70;;;;;;;18.39;38.92;100587.88;5032888;28;20037;-71
2024/04/03 07:23:07;;;;;;;1.15;0.77;;;;;;;18.56;39.22;100593.19;5032870;28;20075;-71
2024/04/03 07:25:33;;;;;;;1.15;0.50;;;;;;;18.51;38.53;100587.06;5032877;28;20029;-71
2024/04/03 07:28:10;;;;;;;1.73;0.70;;;;;;;18.64;36.43;100593.25;5033263;28;20083;-71
2024/04/03 07:30:36;;;;;;;0.45;0.45;;;;;;;18.18;39.79;100590.31;5033480;28;20060;-71
2024/04/03 07:33:04;;;;;;;9.82;1.35;;;;;;;18.14;41.37;100586.78;5032812;28;20025;-71
2024/04/03 07:35:29;;;;;;;1.27;0.52;;;;;;;18.07;39.27;100590.25;5032808;28;20026;-71
2024/04/03 07:37:55;;;;;;;0.73;0.60;;;;;;;17.84;39.30;100554.31;5032871;28;20087;-71
2024/04/03 07:40:20;;;;;;;2.75;0.75;;;;;;;18.27;39.04;100591.25;5032779;28;20111;-71
2024/04/03 07:42:47;;;;;;;0.40;0.40;;;;;;;18.11;37.89;100587.66;5032727;28;20033;-71
2024/04/03 07:45:12;;;;;;;1.30;0.50;;;;;;;18.13;41.45;100594.63;5034291;28;20051;-71
2024/04/03 07:47:38;;;;;;;0.77;0.60;;;;;;;18.03;38.36;100583.22;5036324;28;20519;-70
2024/04/03 07:50:08;;;;;;;4.65;0.90;;;;;;;18.20;38.14;100586.84;5033848;28;20029;-72
2024/04/03 07:52:37;;;;;;;;;;;;;;;18.56;36.59;100582.72;5032873;28;20025;-71
2024/04/03 07:55:21;;;;;;;;;;;;;;;18.69;36.79;100585.41;5032807;28;19939;-72
2024/04/03 07:57:46;;;;;;;0.77;0.50;;;;;;;18.86;35.12;100578.53;5032406;28;19974;-73
2024/04/03 08:00:12;;;;;;;0.55;0.50;;;;;;;19.10;34.31;100584.75;5032514;28;20128;-72
2024/04/03 08:02:42;;;;;;;1.80;0.60;;;;;;;19.16;34.32;100590.00;5032280;28;20251;-73
2024/04/03 08:05:11;;;;;;;1.55;0.70;;;;;;;19.26;34.47;100577.84;5023556;28;20679;-72
2024/04/03 08:07:38;;;;;;;2.35;0.50;;;;;;;18.87;35.95;100576.81;5032779;28;20126;-72
2024/04/03 08:10:08;;;;;;;0.60;0.40;;;;;;;19.22;35.35;100586.56;5032590;28;20030;-72
2024/04/03 08:12:36;;;;;;;3.00;0.80;;;;;;;19.45;35.26;100584.00;5000677;28;20504;-72
2024/04/03 08:15:02;;;;;;;0.85;0.63;;;;;;;19.48;34.69;100580.53;5032191;28;20029;-72
2024/04/03 08:17:28;;;;;;;3.20;0.63;;;;;;;19.39;34.97;100570.91;5032417;28;20026;-73
2024/04/03 08:19:55;;;;;;;1.83;0.60;;;;;;;19.47;34.94;100569.16;5032323;28;20041;-72
2024/04/03 08:22:21;;;;;;;0.50;0.50;;;;;;;19.62;35.76;100581.41;5031682;28;20033;-72
2024/04/03 08:24:47;;;;;;;0.70;0.70;;;;;;;19.56;35.89;100573.53;5020183;28;20053;-73
2024/04/03 08:27:13;;;;;;;0.90;0.75;;;;;;;19.30;38.16;100576.09;5031374;28;20036;-72
2024/04/03 08:29:42;;;;;;;0.75;0.65;;;;;;;19.33;36.00;100566.50;5032132;28;20087;-72
2024/04/03 08:32:09;;;;;;;1.88;0.70;;;;;;;19.34;35.63;100580.47;5022458;28;20033;-73
2024/04/03 08:34:34;;;;;;;1.50;0.77;;;;;;;19.51;35.41;100567.41;5031413;28;20037;-72
2024/04/03 08:37:00;;;;;;;1.45;0.70;;;;;;;19.60;35.39;100572.69;5031954;28;20108;-72
2024/04/03 08:39:25;;;;;;;2.08;0.70;;;;;;;19.46;35.19;100562.16;5031648;28;20465;-72
2024/04/03 08:41:55;;;;;;;1.42;0.70;;;;;;;19.57;34.80;100543.88;5031685;28;20108;-72
2024/04/03 08:44:22;;;;;;;4.05;0.60;;;;;;;19.62;35.08;100573.53;5031751;28;20091;-72
2024/04/03 08:46:54;;;;;;;4.50;0.80;;;;;;;19.75;35.94;100578.81;5031907;28;20037;-72
2024/04/03 08:49:21;;;;;;;0.60;0.40;;;;;;;19.72;33.88;100566.56;5019204;28;20514;-72
2024/04/03 08:52:07;;;;;;;2.42;0.60;;;;;;;19.73;37.07;100556.09;5031333;28;20039;-72
2024/04/03 08:54:33;;;;;;;1.90;0.50;;;;;;;19.58;37.12;100555.19;5031349;28;20041;-72
2024/04/03 08:57:01;;;;;;;0.60;0.50;;;;;;;19.48;34.60;100560.44;5030796;28;20040;-71
2024/04/03 08:59:31;;;;;;;1.00;0.50;;;;;;;19.39;34.04;100518.56;5031135;28;20048;-72
2024/04/03 09:01:56;;;;;;;0.40;0.40;;;;;;;19.75;34.10;100561.34;5030988;28;20060;-73
2024/04/03 09:04:22;;;;;;;2.90;0.60;;;;;;;19.81;32.92;100552.59;5028377;28;20388;-72
2024/04/03 09:06:47;;;;;;;1.42;0.50;;;;;;;20.03;32.53;100550.91;5023977;28;20120;-72
2024/04/03 09:09:25;;;;;;;1.65;0.52;;;;;;;19.83;32.85;100514.22;5031283;28;20737;-72
2024/04/03 09:11:59;;;;;;;0.85;0.65;;;;;;;20.28;33.02;100558.72;5022699;28;20061;-73
2024/04/03 09:14:25;;;;;;;1.75;0.70;;;;;;;20.52;32.74;100550.81;5031081;28;20029;-74
2024/04/03 09:16:57;;;;;;;1.80;0.63;;;;;;;20.66;36.62;100549.88;5029320;28;20083;-73
2024/04/03 09:19:22;;;;;;;1.05;0.75;;;;;;;20.67;33.87;100534.16;5030837;28;20026;-73
2024/04/03 09:21:48;;;;;;;0.98;0.47;;;;;;;20.89;32.37;100541.09;5017580;28;20506;-72
2024/04/03 09:24:13;;;;;;;1.05;0.60;;;;;;;21.03;32.75;100544.50;5030316;28;20071;-72
2024/04/03 09:26:43;;;;;;;1.42;0.70;;;;;;;20.97;33.62;100540.19;5030519;28;20037;-72
2024/04/03 09:29:12;;;;;;;1.38;0.70;;;;;;;20.72;33.79;100543.78;5027396;28;20037;-72
2024/04/03 09:31:37;;;;;;;0.80;0.63;;;;;;;20.67;34.29;100528.00;5028764;28;20029;-72
2024/04/03 09:34:04;;;;;;;1.75;0.73;;;;;;;20.81;33.16;100531.50;5031279;28;20032;-72
2024/04/03 09:36:29;;;;;;;1.58;0.70;;;;;;;20.99;33.58;100532.28;5028079;28;20511;-72
2024/04/03 09:38:55;;;;;;;1.02;0.70;;;;;;;20.98;33.76;100525.28;5020463;28;20037;-72
2024/04/03 09:41:21;;;;;;;0.60;0.60;;;;;;;20.97;34.83;100516.56;5013033;28;20056;-71
2024/04/03 09:43:50;;;;;;;0.60;0.60;;;;;;;21.16;34.99;100517.31;5030711;28;20045;-71
2024/04/03 09:46:18;;;;;;;0.75;0.70;;;;;;;21.14;34.72;100478.84;5030246;28;20037;-71
2024/04/03 09:48:50;;;;;;;1.17;0.65;;;;;;;21.44;34.88;100480.34;5027013;28;20034;-70
2024/04/03 09:51:18;;;;;;;1.05;0.60;;;;;;;21.77;33.40;100511.66;5029081;28;20029;-73
2024/04/03 09:53:44;;;;;;;1.40;0.77;;;;;;;21.96;34.76;100501.84;5004632;28;20075;-70
2024/04/03 09:56:15;;;;;;;1.08;0.70;;;;;;;22.03;33.81;100492.13;5030021;28;20029;-71
2024/04/03 09:58:41;;;;;;;1.30;0.70;;;;;;;22.29;36.10;100502.38;5028996;28;20116;-71
2024/04/03 10:01:08;;;;;;;1.35;0.55;;;;;;;22.42;33.78;100500.53;5030157;28;20366;-71
2024/04/03 10:03:37;;;;;;;0.70;0.50;;;;;;;22.56;35.13;100503.00;5029513;28;20040;-71
2024/04/03 10:06:13;;;;;;;1.65;0.60;;;;;;;22.82;32.88;100493.88;5029686;28;20048;-71
2024/04/03 10:08:41;;;;;;;0.60;0.60;;;;;;;22.94;32.64;100497.25;5028395;28;20116;-71
2024/04/03 10:11:11;;;;;;;16.30;1.50;;;;;;;23.05;32.28;100501.47;5027994;28;20029;-71
2024/04/03 10:13:41;;;;;;;0.68;0.63;;;;;;;23.15;33.24;100502.22;5012481;28;20125;-71
2024/04/03 10:16:12;;;;;;;2.05;0.55;;;;;;;23.24;32.73;100494.19;5025917;28;20112;-72
2024/04/03 10:18:45;;;;;;;1.55;0.80;;;;;;;23.18;34.60;100484.66;5024477;28;20579;-71
2024/04/03 10:21:13;;;;;;;1.88;0.63;;;;;;;23.10;31.79;100489.09;5027696;28;20107;-71
2024/04/03 10:23:48;;;;;;;1.00;0.63;;;;;;;23.19;30.63;100488.13;5023726;28;20495;-72
2024/04/03 10:26:18;;;;;;;2.15;0.45;;;;;;;22.43;25.84;100390.03;5028072;28;21674;-72
2024/04/03 10:28:45;;;;;;;2.45;0.47;;;;;;;22.47;27.33;100477.69;5015861;28;20057;-72
2024/04/03 10:31:18;;;;;;;0.75;0.50;;;;;;;22.44;29.18;100467.19;5026166;28;20668;-70
2024/04/03 10:33:48;;;;;;;0.73;0.60;;;;;;;22.58;26.13;100488.94;5028866;28;20033;-72
2024/04/03 10:36:15;;;;;;;1.55;0.50;;;;;;;22.46;25.90;100482.03;5027745;28;20030;-72
2024/04/03 10:38:42;;;;;;;0.75;0.45;;;;;;;22.53;27.91;100479.34;5028901;28;20100;-71
2024/04/03 10:41:08;;;;;;;2.33;0.60;;;;;;;22.82;28.21;100484.25;5028189;28;20037;-71
2024/04/03 10:43:35;;;;;;;0.98;0.40;;;;;;;22.91;25.51;100468.31;5028707;28;20591;-72
2024/04/03 10:46:01;;;;;;;1.42;0.50;;;;;;;22.74;26.66;100471.19;5027464;28;20116;-71
2024/04/03 10:48:26;;;;;;;0.50;0.40;;;;;;;22.05;25.16;100469.34;5028217;28;20116;-72
2024/04/03 10:50:52;;;;;;;0.57;0.40;;;;;;;22.35;27.02;100447.09;5028856;28;20022;-71
2024/04/03 10:53:18;;;;;;;2.78;0.40;;;;;;;22.86;25.96;100478.03;5029570;28;20048;-72
2024/04/03 10:55:45;;;;;;;1.15;0.50;;;;;;;23.02;25.23;100455.00;5029573;28;20033;-71
2024/04/03 10:58:11;;;;;;;9.15;0.95;;;;;;;23.36;24.56;100466.81;5028065;28;20033;-72
2024/04/03 11:00:42;;;;;;;2.00;0.40;;;;;;;23.39;24.60;100456.22;5028876;28;20479;-71
2024/04/03 11:03:12;;;;;;;0.73;0.55;;;;;;;23.69;25.76;100454.84;5028324;28;20036;-72
2024/04/03 11:05:38;;;;;;;2.25;0.50;;;;;;;23.16;26.12;100459.22;5008202;28;20042;-70
2024/04/03 11:08:05;;;;;;;1.73;0.65;;;;;;;23.42;27.85;100467.56;5028148;28;20033;-72
2024/04/03 11:10:31;;;;;;;1.83;0.52;;;;;;;23.27;26.02;100428.31;5028911;28;20041;-70
2024/04/03 11:13:04;;;;;;;2.13;1.10;;;;;;;23.24;26.27;100460.84;5028677;28;20021;-71
2024/04/03 11:15:30;;;;;;;0.82;0.65;;;;;;;22.74;28.11;100450.13;5027227;28;20049;-71
2024/04/03 11:17:56;;;;;;;1.90;0.57;;;;;;;23.10;27.07;100452.25;5028851;28;20037;-71
2024/04/03 11:20:24;;;;;;;2.05;0.90;;;;;;;23.09;25.92;100419.78;5029510;28;20135;-70
2024/04/03 11:22:52;;;;;;;0.90;0.52;;;;;;;23.55;25.08;100443.66;5028427;28;20026;-71
2024/04/03 11:25:19;;;;;;;1.52;0.60;;;;;;;23.88;24.72;100436.91;5028461;28;20037;-71
2024/04/03 11:27:45;;;;;;;1.88;0.70;;;;;;;23.98;24.46;100440.28;5028471;28;20099;-71